createdAt,value
2023-02-23T06:09:28.642Z,100
2023-02-23T06:24:29.777Z,100
2023-02-23T06:39:35.115Z,100
2023-02-23T06:54:29.740Z,100
2023-02-23T07:09:31.761Z,100
2023-02-23T07:24:38.356Z,100
2023-02-23T07:39:31.693Z,100
2023-02-23T07:54:35.014Z,100
2023-02-23T08:09:36.707Z,100
2023-02-23T08:24:37.296Z,100
2023-02-23T08:39:38.541Z,100
2023-02-23T08:54:39.148Z,100
2023-02-23T09:10:15.613Z,100
2023-02-23T09:24:53.248Z,100
2023-02-23T09:39:42.616Z,100
2023-02-23T10:24:24.027Z,100
2023-02-23T10:39:43.553Z,100
2023-02-23T10:54:45.239Z,100
2023-02-23T11:09:49.869Z,100
2023-02-23T11:24:47.887Z,100
2023-02-23T11:39:45.628Z,100
2023-02-23T11:54:46.727Z,100
2023-02-23T12:09:47.414Z,100
2023-02-23T12:24:48.630Z,100
2023-02-23T12:39:48.951Z,100
2023-02-23T12:54:48.832Z,100
2023-02-23T13:09:49.565Z,80.2
2023-02-23T13:24:52.004Z,80.2
2023-02-23T13:39:51.415Z,63
2023-02-23T13:54:51.738Z,75.2
2023-02-23T14:09:52.052Z,87.2
2023-02-23T14:24:54.232Z,87.2
2023-02-23T14:39:57.175Z,97.9
2023-02-23T14:54:53.725Z,100
2023-02-23T15:09:55.435Z,100
2023-02-23T15:25:01.247Z,93.4
2023-02-23T15:39:55.812Z,88.5
2023-02-23T15:54:56.842Z,82.9
2023-02-23T16:09:57.128Z,89.7
2023-02-23T16:24:58.316Z,100
2023-02-23T16:39:58.590Z,100
2023-02-23T16:55:00.397Z,100
2023-02-23T17:09:59.747Z,100
2023-02-23T17:25:00.854Z,100
2023-02-23T17:40:01.636Z,100
2023-02-23T17:55:03.265Z,100
2023-02-23T18:25:06.322Z,100
2023-02-23T18:55:05.525Z,100
2023-02-23T19:10:05.633Z,100
2023-02-23T19:25:05.567Z,100
2023-02-23T19:40:07.134Z,100
2023-02-23T19:55:12.994Z,100
2023-02-23T20:10:29.021Z,100
2023-02-23T20:25:12.037Z,100
2023-02-23T20:40:10.172Z,100
2023-02-23T20:55:10.755Z,100
2023-02-23T21:10:11.278Z,100
2023-02-23T21:25:12.198Z,100
2023-02-23T21:40:14.475Z,100
2023-02-23T21:55:23.233Z,100
2023-02-23T22:10:17.003Z,100
2023-02-23T22:25:13.901Z,100
2023-02-23T22:40:15.888Z,100
2023-02-23T22:55:21.891Z,100
2023-02-23T23:00:55.280Z,100
2023-02-23T23:15:41.397Z,100
2023-02-23T23:30:41.492Z,100
2023-02-23T23:45:42.258Z,100
